Time;durP1;ratioP1;P1;durP2;ratioP2;P2;SDS_P1;SDS_P2;PMS_P1;PMS_P2;Temp;Humidity;BMP_temperature;BMP_pressure;BME280_temperature;BME280_humidity;BME280_pressure;Samples;Min_cycle;Max_cycle;Signal;HPM_P1;HPM_P2
2023/07/06 00:00:51;;;;;;;7.72;6.63;;;;;;;13.32;100.00;101404.97;5038888;28;20024;-59
2023/07/06 00:03:17;;;;;;;8.10;6.53;;;;;;;13.25;100.00;101403.00;5048767;28;20389;-60
2023/07/06 00:05:44;;;;;;;9.98;6.38;;;;;;;13.24;100.00;101401.25;5048943;28;20170;-58
2023/07/06 00:08:16;;;;;;;6.50;5.65;;;;;;;13.18;100.00;101395.03;5048884;28;20071;-61
2023/07/06 00:10:46;;;;;;;7.32;6.28;;;;;;;13.16;100.00;101401.91;5049104;28;20025;-61
2023/07/06 00:13:12;;;;;;;6.85;5.65;;;;;;;13.10;100.00;101406.91;5048434;28;20078;-60
2023/07/06 00:15:39;;;;;;;8.88;5.78;;;;;;;13.06;100.00;101411.13;5048385;28;20029;-61
2023/07/06 00:18:05;;;;;;;7.40;5.15;;;;;;;13.08;100.00;101398.16;5049164;28;20063;-59
2023/07/06 00:20:38;;;;;;;6.93;5.10;;;;;;;13.05;100.00;101403.28;5048838;28;20559;-60
2023/07/06 00:23:04;;;;;;;5.75;5.15;;;;;;;13.05;100.00;101403.28;5047755;28;20075;-60
2023/07/06 00:25:30;;;;;;;10.50;5.13;;;;;;;13.05;100.00;101408.47;5048266;28;20032;-60
2023/07/06 00:27:57;;;;;;;7.22;5.68;;;;;;;13.03;100.00;101399.75;5046991;28;20431;-61
2023/07/06 00:30:40;;;;;;;4.97;4.47;;;;;;;13.03;100.00;101399.75;5048309;28;20390;-61
2023/07/06 00:33:09;;;;;;;8.65;5.28;;;;;;;12.97;100.00;101410.84;5048075;28;20063;-60
2023/07/06 00:35:35;;;;;;;7.03;4.90;;;;;;;12.92;100.00;101408.09;5047945;28;20032;-60
2023/07/06 00:38:02;;;;;;;8.77;4.70;;;;;;;12.86;100.00;101405.31;5048434;28;20071;-60
2023/07/06 00:40:31;;;;;;;10.98;5.35;;;;;;;12.83;100.00;101413.91;5048324;28;20044;-59
2023/07/06 00:42:58;;;;;;;9.38;4.95;;;;;;;12.79;100.00;101408.56;5048601;28;20481;-60
2023/07/06 00:45:24;;;;;;;6.95;4.63;;;;;;;12.75;100.00;101404.09;5045504;28;20033;-59
2023/07/06 00:47:56;;;;;;;6.30;4.80;;;;;;;12.70;100.00;101407.41;5036988;28;20052;-59
2023/07/06 00:50:25;;;;;;;5.75;4.63;;;;;;;12.67;100.00;101407.31;5047883;28;20088;-61
2023/07/06 00:52:55;;;;;;;6.32;4.28;;;;;;;12.66;100.00;101410.78;5048065;28;20485;-61
2023/07/06 00:55:25;;;;;;;7.30;4.15;;;;;;;12.63;100.00;101405.44;5047839;28;20040;-59
2023/07/06 00:57:54;;;;;;;8.93;5.10;;;;;;;12.64;100.00;101415.03;5047756;28;20031;-60
2023/07/06 01:00:21;;;;;;;7.28;4.55;;;;;;;12.64;100.00;101408.94;5047791;28;20103;-60
2023/07/06 01:02:51;;;;;;;7.03;4.82;;;;;;;12.61;100.00;101402.81;5047679;28;20032;-59
2023/07/06 01:05:18;;;;;;;7.32;4.18;;;;;;;12.62;100.00;101406.28;5047983;28;20047;-61
2023/07/06 01:07:45;;;;;;;5.82;4.07;;;;;;;12.60;100.00;101401.06;5047977;28;20021;-61
2023/07/06 01:10:11;;;;;;;6.90;4.40;;;;;;;12.59;100.00;101401.00;5047874;28;20036;-60
2023/07/06 01:12:37;;;;;;;8.25;4.22;;;;;;;12.58;100.00;101407.91;5047302;28;20063;-61
2023/07/06 01:15:03;;;;;;;6.72;3.70;;;;;;;12.55;100.00;101406.94;5048189;28;20108;-60
2023/07/06 01:17:39;;;;;;;5.80;4.13;;;;;;;12.53;100.00;101400.78;5047613;28;20350;-60
2023/07/06 01:20:17;;;;;;;5.80;3.95;;;;;;;12.51;100.00;101403.34;5047179;28;20052;-59
2023/07/06 01:23:07;;;;;;;5.05;3.42;;;;;;;12.47;100.00;101415.34;5047187;28;20049;-59
2023/07/06 01:26:14;;;;;;;3.88;3.47;;;;;;;12.42;100.00;101413.44;5047404;28;20021;-60
2023/07/06 01:29:01;;;;;;;4.93;3.53;;;;;;;12.39;100.00;101410.72;5046845;28;20431;-60
2023/07/06 01:31:53;;;;;;;6.90;4.13;;;;;;;12.40;100.00;101415.97;5047956;28;20036;-60
2023/07/06 01:34:45;;;;;;;6.63;4.32;;;;;;;12.39;100.00;101409.03;5036306;28;20020;-60
2023/07/06 01:37:26;;;;;;;7.43;3.33;;;;;;;12.34;100.00;101414.03;5048888;28;20071;-59
2023/07/06 01:39:53;;;;;;;6.10;4.20;;;;;;;12.33;100.00;101412.28;5051425;28;20045;-60
2023/07/06 01:42:25;;;;;;;6.90;3.80;;;;;;;12.31;100.00;101405.25;5051329;28;20025;-60
2023/07/06 01:44:52;;;;;;;8.65;3.88;;;;;;;12.31;100.00;101413.06;5038457;28;20036;-60
2023/07/06 01:47:19;;;;;;;6.82;3.63;;;;;;;12.31;100.00;101410.47;5051621;28;20392;-60
2023/07/06 01:49:46;;;;;;;9.13;3.67;;;;;;;12.28;100.00;101402.56;5051630;28;20017;-60
2023/07/06 01:52:52;;;;;;;5.57;3.70;;;;;;;12.28;100.00;101397.38;5050935;28;20411;-60
2023/07/06 01:55:35;;;;;;;8.73;3.58;;;;;;;12.29;100.00;101404.31;5049944;28;20021;-60
2023/07/06 01:58:25;;;;;;;5.82;3.30;;;;;;;12.24;100.00;101405.06;5051028;28;20028;-60
2023/07/06 02:01:02;;;;;;;10.18;3.47;;;;;;;12.22;100.00;101409.31;5037764;28;20151;-60
2023/07/06 02:03:29;;;;;;;5.18;3.72;;;;;;;12.18;100.00;101410.03;5051246;28;20037;-59
2023/07/06 02:05:55;;;;;;;9.45;3.70;;;;;;;12.19;100.00;101406.63;5051369;28;20021;-60
2023/07/06 02:08:23;;;;;;;7.18;3.85;;;;;;;12.18;100.00;101414.38;5051043;28;20024;-59
2023/07/06 02:10:49;;;;;;;6.03;3.70;;;;;;;12.18;100.00;101406.59;5050881;28;20369;-60
2023/07/06 02:13:15;;;;;;;8.70;3.45;;;;;;;12.16;100.00;101413.44;5050465;28;20036;-59
2023/07/06 02:15:40;;;;;;;7.32;3.80;;;;;;;12.14;100.00;101410.78;5050549;28;20032;-59
2023/07/06 02:18:06;;;;;;;7.10;4.70;;;;;;;12.13;100.00;101409.91;5051398;28;20040;-60
2023/07/06 02:20:31;;;;;;;6.55;3.78;;;;;;;12.10;100.00;101404.59;5050485;28;20032;-59
2023/07/06 02:22:57;;;;;;;8.30;4.22;;;;;;;12.08;100.00;101400.13;5050893;28;20434;-60
2023/07/06 02:25:23;;;;;;;6.97;3.78;;;;;;;12.06;100.00;101401.78;5050977;28;20029;-60
2023/07/06 02:27:49;;;;;;;8.70;3.42;;;;;;;12.04;100.00;101400.84;5051300;28;20082;-61
2023/07/06 02:30:14;;;;;;;6.95;3.42;;;;;;;12.01;100.00;101399.94;5051198;28;20457;-60
2023/07/06 02:32:39;;;;;;;7.50;3.50;;;;;;;11.98;100.00;101397.22;5050690;28;20457;-60
2023/07/06 02:35:06;;;;;;;8.02;3.80;;;;;;;11.96;100.00;101400.59;5050185;28;20508;-59
2023/07/06 02:37:32;;;;;;;7.22;3.42;;;;;;;11.96;100.00;101391.06;5050990;28;20110;-60
2023/07/06 02:40:00;;;;;;;5.00;3.20;;;;;;;11.95;100.00;101394.50;5051009;28;20032;-60
2023/07/06 02:42:26;;;;;;;5.68;3.40;;;;;;;11.96;100.00;101404.06;5051042;28;20457;-60
2023/07/06 02:44:52;;;;;;;9.25;3.92;;;;;;;11.93;100.00;101403.06;5049878;28;20032;-59
2023/07/06 02:47:18;;;;;;;6.57;3.50;;;;;;;11.94;100.00;101397.94;5050787;28;20028;-59
2023/07/06 02:49:43;;;;;;;6.20;3.47;;;;;;;11.94;100.00;101404.84;5050197;28;20020;-59
2023/07/06 02:52:08;;;;;;;7.85;3.58;;;;;;;11.94;100.00;101403.16;5050132;28;20028;-60
2023/07/06 02:54:33;;;;;;;8.18;3.38;;;;;;;11.91;100.00;101407.34;5050130;28;20025;-60
2023/07/06 02:57:02;;;;;;;11.25;4.03;;;;;;;11.83;100.00;101400.16;5050744;28;20044;-61
2023/07/06 02:59:29;;;;;;;6.75;3.97;;;;;;;11.87;100.00;101403.75;5049707;28;20048;-59
2023/07/06 03:01:56;;;;;;;7.00;3.65;;;;;;;11.89;100.00;101404.69;5050453;28;20032;-60
2023/07/06 03:04:22;;;;;;;7.60;3.47;;;;;;;11.93;100.00;101406.56;5049905;28;20036;-61
2023/07/06 03:06:47;;;;;;;6.30;3.33;;;;;;;11.96;100.00;101408.38;5049870;28;20032;-60
2023/07/06 03:09:14;;;;;;;6.95;3.90;;;;;;;11.96;100.00;101411.84;5045069;28;20429;-60
2023/07/06 03:11:44;;;;;;;8.48;3.95;;;;;;;11.98;100.00;101411.94;5049673;28;20021;-59
2023/07/06 03:14:11;;;;;;;5.53;3.30;;;;;;;11.98;100.00;101405.00;5049520;28;20449;-60
2023/07/06 03:16:42;;;;;;;8.63;3.67;;;;;;;12.00;100.00;101410.25;5048996;28;20033;-59
2023/07/06 03:19:09;;;;;;;5.57;3.53;;;;;;;12.04;100.00;101417.31;5047567;28;20020;-59
2023/07/06 03:21:37;;;;;;;7.75;3.47;;;;;;;12.06;100.00;101414.78;5048000;28;20320;-60
2023/07/06 03:24:03;;;;;;;5.10;3.47;;;;;;;12.08;100.00;101415.72;5047021;28;20385;-61
2023/07/06 03:26:29;;;;;;;8.20;3.42;;;;;;;12.08;100.00;101415.72;5047853;28;20033;-58
2023/07/06 03:28:55;;;;;;;6.65;3.65;;;;;;;12.08;100.00;101426.13;5046846;28;20028;-60
2023/07/06 03:31:21;;;;;;;9.82;3.90;;;;;;;12.07;100.00;101424.34;5046838;28;20055;-60
2023/07/06 03:33:47;;;;;;;10.13;3.85;;;;;;;12.05;100.00;101420.81;5047144;28;20060;-60
2023/07/06 03:36:12;;;;;;;7.43;3.50;;;;;;;12.06;100.00;101423.47;5047101;28;20492;-59
2023/07/06 03:38:37;;;;;;;7.25;3.75;;;;;;;12.07;100.00;101426.97;5047118;28;20072;-58
2023/07/06 03:41:03;;;;;;;7.22;3.30;;;;;;;12.03;100.00;101427.66;5047532;28;20048;-60
2023/07/06 03:43:29;;;;;;;6.63;3.80;;;;;;;12.03;100.00;101431.16;5048720;28;20071;-60
2023/07/06 03:45:54;;;;;;;8.25;3.40;;;;;;;12.04;100.00;101432.03;5048659;28;20032;-60
2023/07/06 03:48:21;;;;;;;7.72;3.90;;;;;;;12.01;100.00;101433.69;5047967;28;20021;-61
2023/07/06 03:50:47;;;;;;;7.57;4.00;;;;;;;12.03;100.00;101443.25;5048886;28;20029;-60
2023/07/06 03:53:12;;;;;;;7.60;4.18;;;;;;;12.03;100.00;101445.84;5034971;28;20020;-60
2023/07/06 03:55:40;;;;;;;11.32;4.13;;;;;;;12.03;100.00;101438.94;5048117;28;20059;-59
2023/07/06 03:58:07;;;;;;;6.78;3.97;;;;;;;12.03;100.00;101438.94;5047964;28;20029;-59
2023/07/06 04:00:34;;;;;;;10.38;4.38;;;;;;;12.06;100.00;101451.16;5047646;28;20461;-60
2023/07/06 04:03:00;;;;;;;6.82;4.30;;;;;;;12.05;100.00;101441.59;5035390;28;20517;-60
2023/07/06 04:05:47;;;;;;;8.40;4.10;;;;;;;12.05;100.00;101458.06;5048837;28;20024;-60
2023/07/06 04:08:16;;;;;;;7.97;4.20;;;;;;;12.02;100.00;101450.16;5038255;28;20111;-60
2023/07/06 04:10:41;;;;;;;8.80;4.80;;;;;;;12.03;100.00;101456.25;5048858;28;20552;-59
2023/07/06 04:13:09;;;;;;;13.65;4.57;;;;;;;12.02;100.00;101457.94;5048918;28;20056;-59
2023/07/06 04:15:36;;;;;;;8.55;4.30;;;;;;;12.03;100.00;101464.03;5048065;28;20083;-60
2023/07/06 04:18:03;;;;;;;9.88;4.50;;;;;;;12.06;100.00;101464.13;5037179;28;20491;-59
2023/07/06 04:20:29;;;;;;;8.95;4.05;;;;;;;12.07;100.00;101455.53;5048597;28;20031;-60
2023/07/06 04:22:57;;;;;;;9.10;4.03;;;;;;;12.06;100.00;101456.34;5048702;28;20017;-60
2023/07/06 04:25:26;;;;;;;8.68;4.32;;;;;;;12.06;100.00;101461.53;5048447;28;20032;-59
2023/07/06 04:27:52;;;;;;;9.90;4.38;;;;;;;12.07;100.00;101452.94;5048790;28;20029;-60
2023/07/06 04:30:19;;;;;;;7.90;4.55;;;;;;;12.06;100.00;101454.63;5048212;28;20488;-60
2023/07/06 04:32:49;;;;;;;10.00;5.28;;;;;;;12.07;100.00;101460.72;5048780;28;20021;-60
2023/07/06 04:35:16;;;;;;;6.78;4.10;;;;;;;12.12;100.00;101461.81;5047779;28;20471;-59
2023/07/06 04:37:45;;;;;;;12.52;5.70;;;;;;;12.13;100.00;101471.34;5047961;28;20041;-60
2023/07/06 04:40:12;;;;;;;11.07;4.40;;;;;;;12.17;100.00;101473.25;5048284;28;20381;-59
2023/07/06 04:42:39;;;;;;;9.82;4.68;;;;;;;12.18;100.00;101476.72;5048164;28;20060;-60
2023/07/06 04:45:05;;;;;;;8.52;4.03;;;;;;;12.20;100.00;101477.66;5047963;28;20021;-60
2023/07/06 04:47:32;;;;;;;8.95;4.18;;;;;;;12.18;100.00;101479.31;5047834;28;20033;-60
2023/07/06 04:49:58;;;;;;;12.20;3.97;;;;;;;12.19;100.00;101487.19;5048171;28;20025;-60
2023/07/06 04:52:23;;;;;;;9.50;4.65;;;;;;;12.19;100.00;101481.97;5048257;28;20012;-60
2023/07/06 04:54:50;;;;;;;7.72;4.03;;;;;;;12.20;100.00;101480.25;5048132;28;20021;-61
2023/07/06 04:57:16;;;;;;;11.80;4.30;;;;;;;12.22;100.00;101474.28;5047864;28;20027;-59
2023/07/06 04:59:42;;;;;;;9.40;4.47;;;;;;;12.24;100.00;101480.44;5047880;28;20459;-60
2023/07/06 05:02:07;;;;;;;13.20;4.82;;;;;;;12.27;100.00;101482.22;5047567;28;20044;-60
2023/07/06 05:04:33;;;;;;;9.30;4.45;;;;;;;12.35;100.00;101487.72;5047613;28;20021;-60
2023/07/06 05:06:59;;;;;;;10.40;5.18;;;;;;;12.38;100.00;101479.16;5048109;28;20027;-59
2023/07/06 05:09:24;;;;;;;10.32;4.07;;;;;;;12.44;100.00;101481.94;5047839;28;20013;-60
2023/07/06 05:11:52;;;;;;;10.68;5.85;;;;;;;12.47;100.00;101482.94;5047171;28;20036;-60
2023/07/06 05:14:17;;;;;;;10.23;5.20;;;;;;;12.48;100.00;101492.47;5047660;28;20017;-59
2023/07/06 05:16:43;;;;;;;10.57;5.43;;;;;;;12.45;100.00;101486.28;5042641;28;20113;-61
2023/07/06 05:19:08;;;;;;;14.10;5.50;;;;;;;12.44;100.00;101493.22;5044762;28;20028;-61
2023/07/06 05:21:35;;;;;;;11.25;5.97;;;;;;;12.47;100.00;101493.34;5043254;28;20029;-60
2023/07/06 05:24:01;;;;;;;13.35;6.05;;;;;;;12.47;100.00;101495.94;5044571;28;20477;-61
2023/07/06 05:26:26;;;;;;;13.38;6.22;;;;;;;12.50;100.00;101497.75;5045282;28;20078;-60
2023/07/06 05:28:52;;;;;;;9.70;6.13;;;;;;;12.51;100.00;101496.91;5044260;28;20456;-60
2023/07/06 05:31:18;;;;;;;19.30;7.35;;;;;;;12.58;100.00;101500.59;5045107;28;20024;-61
2023/07/06 05:33:43;;;;;;;11.38;7.03;;;;;;;12.62;100.00;101489.50;5043785;28;20054;-60
2023/07/06 05:36:08;;;;;;;15.35;7.07;;;;;;;12.69;100.00;101493.19;5043673;28;20025;-61
2023/07/06 05:38:34;;;;;;;16.98;8.15;;;;;;;12.71;100.00;101504.53;5044447;28;20045;-60
2023/07/06 05:41:03;;;;;;;19.10;8.57;;;;;;;12.76;100.00;101499.47;5045202;28;20037;-59
2023/07/06 05:43:29;;;;;;;16.50;8.32;;;;;;;12.83;100.00;101499.72;5044810;28;20071;-60
2023/07/06 05:45:54;;;;;;;19.70;9.70;;;;;;;12.91;100.00;101499.09;5045051;28;20451;-61
2023/07/06 05:48:19;;;;;;;17.05;9.68;;;;;;;12.95;100.00;101507.03;5044393;28;20025;-61
2023/07/06 05:50:45;;;;;;;16.02;9.18;;;;;;;13.01;100.00;101500.25;5041493;28;20037;-60
2023/07/06 05:53:11;;;;;;;17.45;10.02;;;;;;;13.04;100.00;101506.44;5046674;28;20025;-59
2023/07/06 05:55:36;;;;;;;19.23;9.80;;;;;;;13.10;100.00;101500.56;5046299;28;20048;-60
2023/07/06 05:58:02;;;;;;;22.20;11.48;;;;;;;13.13;100.00;101511.06;5046929;28;20037;-61
2023/07/06 06:00:32;;;;;;;21.27;10.70;;;;;;;13.18;100.00;101509.53;5047853;28;20040;-59
2023/07/06 06:02:58;;;;;;;17.48;10.57;;;;;;;13.25;100.00;101509.72;5047162;28;20032;-60
2023/07/06 06:05:23;;;;;;;20.30;10.13;;;;;;;13.31;100.00;101515.13;5048006;28;20456;-60
2023/07/06 06:07:48;;;;;;;21.40;11.57;;;;;;;13.39;100.00;101516.22;5040598;28;20029;-61
2023/07/06 06:10:14;;;;;;;19.02;10.20;;;;;;;13.51;100.00;101520.06;5047211;28;20499;-58
2023/07/06 06:12:40;;;;;;;17.90;11.30;;;;;;;13.52;100.00;101517.53;5047157;28;20021;-60
2023/07/06 06:15:08;;;;;;;16.40;10.30;;;;;;;13.61;100.00;101524.75;5047296;28;20024;-61
2023/07/06 06:17:34;;;;;;;16.80;10.10;;;;;;;13.70;100.00;101513.72;5046878;28;20040;-60
2023/07/06 06:19:59;;;;;;;14.50;9.45;;;;;;;13.83;100.00;101514.06;5043913;28;20547;-59
2023/07/06 06:22:25;;;;;;;18.90;9.25;;;;;;;13.98;100.00;101519.72;5046975;28;20029;-61
2023/07/06 06:24:50;;;;;;;16.27;9.90;;;;;;;14.15;100.00;101527.16;5050980;28;20043;-61
2023/07/06 06:27:17;;;;;;;18.33;10.43;;;;;;;14.23;100.00;101535.19;5050408;28;20056;-61
2023/07/06 06:29:43;;;;;;;17.42;10.35;;;;;;;14.34;100.00;101528.53;5050546;28;20052;-61
2023/07/06 06:32:10;;;;;;;16.92;9.60;;;;;;;14.41;100.00;101530.47;5050326;28;20025;-60
2023/07/06 06:34:36;;;;;;;13.57;8.82;;;;;;;14.51;100.00;101546.38;5050412;28;20028;-60
2023/07/06 06:37:04;;;;;;;14.85;8.95;;;;;;;14.60;100.00;101532.69;5051009;28;20025;-61
2023/07/06 06:39:29;;;;;;;15.05;9.25;;;;;;;14.74;100.00;101539.16;5050386;28;20049;-61
2023/07/06 06:41:55;;;;;;;17.63;9.90;;;;;;;14.84;100.00;101545.50;5050543;28;20430;-61
2023/07/06 06:44:20;;;;;;;15.23;10.15;;;;;;;14.85;100.00;101547.28;5049097;28;20021;-60
2023/07/06 06:46:47;;;;;;;16.40;9.23;;;;;;;14.93;100.00;101551.81;5041949;28;20466;-60
2023/07/06 06:49:12;;;;;;;19.55;9.68;;;;;;;14.97;100.00;101551.94;5042341;28;20102;-59
2023/07/06 06:51:37;;;;;;;17.02;9.30;;;;;;;15.10;100.00;101547.91;5049720;28;20453;-60
2023/07/06 06:54:03;;;;;;;13.07;8.50;;;;;;;15.27;100.00;101556.97;5049037;28;20029;-61
2023/07/06 06:56:29;;;;;;;11.45;8.90;;;;;;;15.44;100.00;101557.38;5050348;28;20017;-60
2023/07/06 06:58:54;;;;;;;15.10;9.05;;;;;;;15.57;100.00;101553.31;5049539;28;20028;-60
2023/07/06 07:01:20;;;;;;;15.55;9.13;;;;;;;15.70;100.00;101560.56;5049961;28;20017;-59
2023/07/06 07:03:46;;;;;;;14.88;9.63;;;;;;;15.79;100.00;101565.13;5049045;28;20800;-60
2023/07/06 07:06:14;;;;;;;12.48;8.80;;;;;;;15.76;100.00;101565.06;5046027;28;20020;-60
2023/07/06 07:08:50;;;;;;;15.02;9.50;;;;;;;15.73;100.00;101565.00;5048211;28;20112;-60
2023/07/06 07:11:20;;;;;;;14.98;10.15;;;;;;;15.60;100.00;101569.94;5048245;28;20067;-59
2023/07/06 07:13:50;;;;;;;18.90;10.80;;;;;;;15.54;100.00;101572.41;5048053;28;20389;-60
2023/07/06 07:16:16;;;;;;;17.02;11.15;;;;;;;15.50;100.00;101573.19;5035961;28;20051;-60
2023/07/06 07:18:43;;;;;;;11.13;9.82;;;;;;;15.41;100.00;101576.47;5047950;28;20056;-59
2023/07/06 07:21:09;;;;;;;19.77;10.90;;;;;;;15.34;100.00;101582.41;5049926;28;20025;-61
2023/07/06 07:23:46;;;;;;;12.55;9.93;;;;;;;15.38;100.00;101585.97;5049445;28;20067;-60
2023/07/06 07:26:15;;;;;;;12.80;9.90;;;;;;;15.37;100.00;101582.47;5049772;28;20473;-61
2023/07/06 07:28:40;;;;;;;14.35;10.05;;;;;;;15.39;100.00;101579.88;5049649;28;20370;-61
2023/07/06 07:31:07;;;;;;;16.55;10.45;;;;;;;15.52;100.00;101594.13;5050177;28;20023;-60
2023/07/06 07:33:34;;;;;;;19.52;11.65;;;;;;;15.58;100.00;101587.31;5046205;28;20053;-60
2023/07/06 07:36:02;;;;;;;14.27;9.18;;;;;;;15.72;100.00;101586.75;5041248;28;20021;-61
2023/07/06 07:38:28;;;;;;;14.05;9.50;;;;;;;15.87;100.00;101598.38;5049075;28;20120;-61
2023/07/06 07:40:56;;;;;;;17.05;9.52;;;;;;;15.94;100.00;101600.25;5036829;28;20034;-61
2023/07/06 07:43:25;;;;;;;18.25;10.05;;;;;;;16.05;100.00;101593.59;5047817;28;20028;-61
2023/07/06 07:45:55;;;;;;;12.48;8.80;;;;;;;16.21;100.00;101591.28;5049429;28;20481;-60
2023/07/06 07:48:25;;;;;;;17.13;10.63;;;;;;;16.36;100.00;101592.44;5048865;28;20021;-61
2023/07/06 07:50:53;;;;;;;13.70;9.52;;;;;;;16.46;100.00;101598.75;5048883;28;20447;-61
2023/07/06 07:53:19;;;;;;;17.85;10.90;;;;;;;16.46;100.00;101599.63;5048924;28;20082;-60
2023/07/06 07:55:44;;;;;;;13.68;9.23;;;;;;;16.53;100.00;101601.50;5048786;28;20472;-59
2023/07/06 07:58:10;;;;;;;15.90;10.38;;;;;;;16.58;100.00;101604.22;5049416;28;20086;-61
2023/07/06 08:00:36;;;;;;;16.27;9.73;;;;;;;16.67;100.00;101596.56;5048937;28;20091;-61
2023/07/06 08:03:03;;;;;;;16.15;11.73;;;;;;;16.68;100.00;101600.03;5049259;28;20112;-59
2023/07/06 08:05:28;;;;;;;17.48;10.27;;;;;;;16.82;100.00;101597.66;5048644;28;20025;-59
2023/07/06 08:07:55;;;;;;;14.45;9.95;;;;;;;16.99;100.00;101604.94;5048712;28;20035;-59
2023/07/06 08:10:21;;;;;;;16.75;10.40;;;;;;;17.11;100.00;101597.34;5049241;28;20104;-61
2023/07/06 08:12:46;;;;;;;12.65;9.60;;;;;;;17.20;100.00;101598.34;5048421;28;20109;-61
2023/07/06 08:15:13;;;;;;;15.88;9.63;;;;;;;17.09;100.00;101606.00;5037050;28;20036;-60
2023/07/06 08:17:38;;;;;;;13.35;10.77;;;;;;;17.04;100.00;101601.56;5047509;28;20029;-60
2023/07/06 08:20:10;;;;;;;16.80;10.27;;;;;;;17.14;100.00;101610.47;5048919;28;20028;-60
2023/07/06 08:22:36;;;;;;;13.75;9.07;;;;;;;17.45;100.00;101599.59;5048525;28;20493;-61
2023/07/06 08:25:07;;;;;;;13.95;9.65;;;;;;;17.73;100.00;101610.53;5048142;28;20035;-60
2023/07/06 08:27:32;;;;;;;16.38;10.13;;;;;;;17.89;100.00;101610.72;5036990;28;20021;-60
2023/07/06 08:29:58;;;;;;;12.45;8.27;;;;;;;18.09;100.00;101612.72;5048307;28;20438;-61
2023/07/06 08:32:24;;;;;;;15.70;8.63;;;;;;;18.20;100.00;101611.16;5048287;28;20021;-60
2023/07/06 08:34:49;;;;;;;13.38;8.13;;;;;;;18.34;100.00;101610.44;5048370;28;20035;-61
2023/07/06 08:37:18;;;;;;;12.88;8.07;;;;;;;18.40;100.00;101610.53;5048584;28;20025;-61
2023/07/06 08:39:44;;;;;;;13.48;9.23;;;;;;;18.18;100.00;101607.66;5048344;28;20053;-60
2023/07/06 08:42:14;;;;;;;14.77;9.23;;;;;;;18.31;100.00;101618.28;5048846;28;20354;-61
2023/07/06 08:44:49;;;;;;;13.40;9.43;;;;;;;18.52;100.00;101619.38;5048524;28;20029;-61
2023/07/06 08:47:15;;;;;;;15.40;9.20;;;;;;;18.62;100.00;101618.63;5048272;28;20079;-61
2023/07/06 08:49:43;;;;;;;13.60;9.23;;;;;;;18.62;100.00;101623.88;5047778;28;20052;-60
2023/07/06 08:52:11;;;;;;;11.25;8.25;;;;;;;18.60;100.00;101625.63;5048679;28;20457;-60
2023/07/06 08:54:41;;;;;;;14.90;8.63;;;;;;;18.36;100.00;101621.84;5048004;28;20040;-60
2023/07/06 08:57:17;;;;;;;13.67;8.63;;;;;;;18.48;100.00;101618.47;5036660;28;20033;-61
2023/07/06 08:59:45;;;;;;;13.52;7.97;;;;;;;18.62;100.00;101629.13;5048297;28;20496;-61
2023/07/06 09:02:22;;;;;;;11.60;7.28;;;;;;;18.53;100.00;101629.91;5048049;28;20032;-60
2023/07/06 09:04:50;;;;;;;12.50;6.90;;;;;;;18.58;100.00;101633.44;5029990;28;20485;-61
2023/07/06 09:07:17;;;;;;;11.20;5.85;;;;;;;18.76;100.00;101636.28;5048006;28;20025;-61
2023/07/06 09:09:45;;;;;;;11.68;6.50;;;;;;;18.68;100.00;101637.06;5047832;28;20417;-61
2023/07/06 09:12:24;;;;;;;10.45;5.65;;;;;;;18.79;100.00;101631.03;5048101;28;20021;-61
2023/07/06 09:14:51;;;;;;;11.35;5.55;;;;;;;19.07;100.00;101634.81;5039944;28;20017;-61
2023/07/06 09:17:18;;;;;;;9.85;5.85;;;;;;;18.98;97.21;101632.09;5043384;28;20032;-61
2023/07/06 09:19:47;;;;;;;10.52;5.75;;;;;;;18.94;99.80;101641.69;5048445;28;20021;-61
2023/07/06 09:22:13;;;;;;;6.85;5.07;;;;;;;18.99;100.00;101648.75;5047639;28;20056;-61
2023/07/06 09:24:44;;;;;;;12.05;5.65;;;;;;;18.96;100.00;101644.31;5047769;28;20485;-62
2023/07/06 09:27:16;;;;;;;11.07;5.45;;;;;;;18.94;100.00;101644.31;5047257;28;20025;-62
2023/07/06 09:29:42;;;;;;;9.98;5.32;;;;;;;19.01;100.00;101641.75;5047705;28;20075;-60
2023/07/06 09:32:16;;;;;;;10.85;5.63;;;;;;;19.06;96.72;101640.06;5046944;28;20017;-61
2023/07/06 09:34:44;;;;;;;7.57;4.93;;;;;;;19.18;98.80;101634.94;5047308;28;20025;-61
2023/07/06 09:37:14;;;;;;;7.63;4.38;;;;;;;19.36;99.63;101642.97;5031853;28;20385;-62
2023/07/06 09:39:41;;;;;;;8.93;3.60;;;;;;;19.51;96.84;101643.09;5040806;28;20396;-61
2023/07/06 09:42:14;;;;;;;7.40;4.20;;;;;;;19.70;94.71;101640.56;5047681;28;20083;-62
2023/07/06 09:44:41;;;;;;;10.73;4.50;;;;;;;19.75;92.56;101651.13;5043639;28;20025;-60
2023/07/06 09:47:11;;;;;;;6.25;3.50;;;;;;;19.91;92.49;101641.59;5042492;28;20052;-61
2023/07/06 09:49:45;;;;;;;6.68;3.50;;;;;;;20.11;90.94;101640.84;5047566;28;20056;-60
2023/07/06 09:52:15;;;;;;;8.63;3.78;;;;;;;20.28;86.37;101646.19;5046899;28;20090;-59
2023/07/06 09:55:22;;;;;;;9.05;3.78;;;;;;;20.31;88.90;101647.94;5047231;28;20017;-61
2023/07/06 09:57:50;;;;;;;10.23;3.35;;;;;;;20.31;84.67;101643.53;5043339;28;20037;-60
2023/07/06 10:00:19;;;;;;;6.15;3.60;;;;;;;20.31;87.13;101645.31;5050497;28;20461;-61
2023/07/06 10:02:56;;;;;;;8.27;3.60;;;;;;;20.50;91.14;101648.91;5050379;28;20040;-60
2023/07/06 10:05:28;;;;;;;7.95;3.78;;;;;;;20.46;86.10;101636.59;5051112;28;20259;-61
2023/07/06 10:08:06;;;;;;;7.68;3.70;;;;;;;20.61;88.41;101644.56;5042464;28;20079;-61
2023/07/06 10:10:50;;;;;;;4.55;2.65;;;;;;;20.92;89.13;101640.22;5051517;28;20036;-60
2023/07/06 10:13:59;;;;;;;6.00;2.95;;;;;;;21.01;84.30;101639.38;5051496;28;20024;-61
2023/07/06 10:16:42;;;;;;;7.50;3.33;;;;;;;21.09;83.02;101638.50;5045327;28;20034;-60
2023/07/06 10:19:11;;;;;;;5.13;2.50;;;;;;;21.35;85.39;101634.13;5048433;28;20021;-61
2023/07/06 10:21:44;;;;;;;3.92;1.70;;;;;;;21.37;75.50;101635.00;5051219;28;20072;-59
2023/07/06 10:24:20;;;;;;;5.25;2.15;;;;;;;21.58;74.85;101628.81;5044310;28;20045;-60
2023/07/06 10:36:51;;;;;;;3.35;1.90;;;;;;;22.11;72.69;101622.53;5040703;28;20424;-60
2023/07/06 10:42:47;;;;;;;7.20;2.75;;;;;;;21.90;68.79;101626.13;5036646;28;20096;-60
2023/07/06 10:45:42;;;;;;;4.05;2.45;;;;;;;21.65;66.48;101623.53;5032923;28;20030;-60
2023/07/06 10:48:32;;;;;;;5.18;2.38;;;;;;;21.69;71.47;101622.63;5050109;28;20033;-61
2023/07/06 10:51:25;;;;;;;5.65;2.13;;;;;;;21.77;68.74;101622.59;5050130;28;20040;-61
2023/07/06 10:54:06;;;;;;;4.53;2.08;;;;;;;21.92;71.62;101629.63;5038398;28;20021;-61
2023/07/06 10:56:39;;;;;;;5.10;2.63;;;;;;;21.89;68.57;101627.88;5050264;28;20060;-61
2023/07/06 10:59:16;;;;;;;4.75;2.25;;;;;;;22.03;70.83;101627.84;5050467;28;20032;-60
2023/07/06 11:01:45;;;;;;;5.43;2.13;;;;;;;22.11;69.37;101637.50;5050519;28;20132;-60
2023/07/06 11:04:39;;;;;;;4.18;2.20;;;;;;;21.91;67.46;101635.81;5050294;28;20033;-60
2023/07/06 11:07:11;;;;;;;5.03;2.13;;;;;;;21.92;68.70;101637.56;5050250;28;20083;-61
2023/07/06 11:10:13;;;;;;;5.80;1.48;;;;;;;21.90;68.30;101634.03;5049595;28;20098;-60
2023/07/06 11:12:54;;;;;;;3.20;1.60;;;;;;;22.18;66.03;101644.50;5049881;28;20041;-61
2023/07/06 11:15:24;;;;;;;3.40;1.40;;;;;;;22.35;64.22;101636.50;5049791;28;20113;-61
2023/07/06 11:17:52;;;;;;;4.47;1.52;;;;;;;22.36;63.63;101637.38;5047706;28;20405;-60
2023/07/06 11:20:22;;;;;;;4.35;1.50;;;;;;;22.26;63.30;101637.44;5048911;28;20029;-61
2023/07/06 11:22:51;;;;;;;3.20;1.70;;;;;;;22.11;64.50;101642.78;5049458;28;20036;-61
2023/07/06 11:25:19;;;;;;;5.30;1.67;;;;;;;21.90;63.48;101649.88;5049611;28;20528;-61
2023/07/06 11:27:48;;;;;;;5.50;1.92;;;;;;;21.76;65.75;101648.13;5049559;28;20388;-60
2023/07/06 11:30:39;;;;;;;7.00;1.77;;;;;;;21.59;68.06;101650.78;5048396;28;20020;-60
2023/07/06 11:33:25;;;;;;;2.85;1.50;;;;;;;21.49;66.72;101649.91;5049405;28;20032;-61
2023/07/06 11:36:06;;;;;;;3.22;1.50;;;;;;;21.48;67.29;101653.41;5046999;28;20051;-61
2023/07/06 11:39:01;;;;;;;5.47;1.80;;;;;;;21.68;66.02;101644.59;5048450;28;20053;-61